sensor_id;sensor_type;location;lat;lon;timestamp;pressure;altitude;pressure_sealevel;temperature;humidity
68320;BME280;55168;51.120;17.024;2023-03-18T00:00:00;100030;;;4.1;89.0
68320;BME280;55168;51.120;17.024;2023-03-18T00:01:00;100040;;;4.1;90.1
68320;BME280;55168;51.120;17.024;2023-03-18T00:02:00;100030;;;4.1;90.5
68320;BME280;55168;51.120;17.024;2023-03-18T00:03:00;100030;;;4.1;89.3
68320;BME280;55168;51.120;17.024;2023-03-18T00:04:00;100030;;;4.1;88.9
68320;BME280;55168;51.120;17.024;2023-03-18T00:05:00;100030;;;4.0;89.5
68320;BME280;55168;51.120;17.024;2023-03-18T00:06:02;100030;;;4.0;89.5
68320;BME280;55168;51.120;17.024;2023-03-18T00:07:00;100030;;;4.0;88.7
68320;BME280;55168;51.120;17.024;2023-03-18T00:08:00;100030;;;4.0;89.8
68320;BME280;55168;51.120;17.024;2023-03-18T00:09:00;100030;;;4.0;91.1
68320;BME280;55168;51.120;17.024;2023-03-18T00:10:00;100020;;;4.0;90.5
68320;BME280;55168;51.120;17.024;2023-03-18T00:11:00;100030;;;4.0;89.6
68320;BME280;55168;51.120;17.024;2023-03-18T00:12:00;100030;;;4.0;90.6
68320;BME280;55168;51.120;17.024;2023-03-18T00:13:01;100020;;;3.9;90.5
68320;BME280;55168;51.120;17.024;2023-03-18T00:14:00;100020;;;4.0;89.1
68320;BME280;55168;51.120;17.024;2023-03-18T00:15:00;100020;;;4.0;89.0
68320;BME280;55168;51.120;17.024;2023-03-18T00:16:00;100020;;;3.9;90.0
68320;BME280;55168;51.120;17.024;2023-03-18T00:17:00;100020;;;3.9;89.6
68320;BME280;55168;51.120;17.024;2023-03-18T00:18:00;100020;;;3.9;90.2
68320;BME280;55168;51.120;17.024;2023-03-18T00:19:00;100020;;;3.9;89.7
68320;BME280;55168;51.120;17.024;2023-03-18T00:20:00;100010;;;3.9;89.6
68320;BME280;55168;51.120;17.024;2023-03-18T00:21:00;100020;;;3.9;89.6
68320;BME280;55168;51.120;17.024;2023-03-18T00:22:00;100020;;;3.9;89.8
68320;BME280;55168;51.120;17.024;2023-03-18T00:23:00;100020;;;3.9;89.7
68320;BME280;55168;51.120;17.024;2023-03-18T00:24:00;100020;;;3.9;90.1
68320;BME280;55168;51.120;17.024;2023-03-18T00:25:00;100020;;;3.9;90.6
68320;BME280;55168;51.120;17.024;2023-03-18T00:26:00;100020;;;3.9;90.0
68320;BME280;55168;51.120;17.024;2023-03-18T00:27:00;100010;;;3.9;89.6
68320;BME280;55168;51.120;17.024;2023-03-18T00:28:00;100010;;;3.9;89.2
68320;BME280;55168;51.120;17.024;2023-03-18T00:29:00;100010;;;3.9;88.6
68320;BME280;55168;51.120;17.024;2023-03-18T00:30:00;100010;;;3.9;88.9
68320;BME280;55168;51.120;17.024;2023-03-18T00:31:02;100010;;;3.9;89.2
68320;BME280;55168;51.120;17.024;2023-03-18T00:32:00;100000;;;3.9;89.0
68320;BME280;55168;51.120;17.024;2023-03-18T00:33:00;100010;;;3.9;90.4
68320;BME280;55168;51.120;17.024;2023-03-18T00:34:00;100000;;;3.9;89.3
68320;BME280;55168;51.120;17.024;2023-03-18T00:35:00;100000;;;3.9;88.9
68320;BME280;55168;51.120;17.024;2023-03-18T00:36:00;100010;;;3.8;91.6
68320;BME280;55168;51.120;17.024;2023-03-18T00:37:00;100000;;;3.8;91.9
68320;BME280;55168;51.120;17.024;2023-03-18T00:38:00;100000;;;3.8;90.5
68320;BME280;55168;51.120;17.024;2023-03-18T00:39:00;100010;;;3.8;91.7
68320;BME280;55168;51.120;17.024;2023-03-18T00:40:02;100010;;;3.8;90.4
68320;BME280;55168;51.120;17.024;2023-03-18T00:41:00;100000;;;3.8;90.2
68320;BME280;55168;51.120;17.024;2023-03-18T00:42:00;100010;;;3.8;90.5
68320;BME280;55168;51.120;17.024;2023-03-18T00:43:00;100010;;;3.8;91.5
68320;BME280;55168;51.120;17.024;2023-03-18T00:44:00;100010;;;3.8;90.1
68320;BME280;55168;51.120;17.024;2023-03-18T00:45:00;100000;;;3.8;90.5
68320;BME280;55168;51.120;17.024;2023-03-18T00:46:00;100010;;;3.7;91.1
68320;BME280;55168;51.120;17.024;2023-03-18T00:47:00;100000;;;3.7;91.7
68320;BME280;55168;51.120;17.024;2023-03-18T00:48:00;100000;;;3.7;92.9
68320;BME280;55168;51.120;17.024;2023-03-18T00:49:02;100000;;;3.7;93.6
68320;BME280;55168;51.120;17.024;2023-03-18T00:50:00;100000;;;3.7;91.0
68320;BME280;55168;51.120;17.024;2023-03-18T00:51:00;100000;;;3.8;89.2
68320;BME280;55168;51.120;17.024;2023-03-18T00:52:00;100000;;;3.8;90.9
68320;BME280;55168;51.120;17.024;2023-03-18T00:53:00;100000;;;3.7;91.2
68320;BME280;55168;51.120;17.024;2023-03-18T00:54:01;100000;;;3.7;91.4
68320;BME280;55168;51.120;17.024;2023-03-18T00:55:00;100000;;;3.6;91.8
68320;BME280;55168;51.120;17.024;2023-03-18T00:56:00;100010;;;3.6;92.1
68320;BME280;55168;51.120;17.024;2023-03-18T00:57:00;100000;;;3.5;92.2
68320;BME280;55168;51.120;17.024;2023-03-18T00:58:00;100000;;;3.5;93.0
68320;BME280;55168;51.120;17.024;2023-03-18T00:59:00;100010;;;3.5;93.3
68320;BME280;55168;51.120;17.024;2023-03-18T01:00:00;100010;;;3.5;93.9
68320;BME280;55168;51.120;17.024;2023-03-18T01:01:00;100000;;;3.4;94.3
68320;BME280;55168;51.120;17.024;2023-03-18T01:02:00;100000;;;3.4;94.6
68320;BME280;55168;51.120;17.024;2023-03-18T01:03:00;100010;;;3.4;94.8
68320;BME280;55168;51.120;17.024;2023-03-18T01:04:00;100010;;;3.4;95.6
68320;BME280;55168;51.120;17.024;2023-03-18T01:05:00;100010;;;3.3;96.7
68320;BME280;55168;51.120;17.024;2023-03-18T01:06:00;100010;;;3.3;97.0
68320;BME280;55168;51.120;17.024;2023-03-18T01:07:00;100010;;;3.3;96.3
68320;BME280;55168;51.120;17.024;2023-03-18T01:08:00;100010;;;3.3;96.6
68320;BME280;55168;51.120;17.024;2023-03-18T01:09:00;100010;;;3.2;98.8
68320;BME280;55168;51.120;17.024;2023-03-18T01:10:00;100010;;;3.2;98.2
68320;BME280;55168;51.120;17.024;2023-03-18T01:11:00;100010;;;3.2;98.3
68320;BME280;55168;51.120;17.024;2023-03-18T01:12:00;100010;;;3.2;98.7
68320;BME280;55168;51.120;17.024;2023-03-18T01:13:00;100010;;;3.2;98.5
68320;BME280;55168;51.120;17.024;2023-03-18T01:14:00;100010;;;3.2;99.1
68320;BME280;55168;51.120;17.024;2023-03-18T01:15:00;100010;;;3.2;98.4
68320;BME280;55168;51.120;17.024;2023-03-18T01:16:00;100010;;;3.1;98.3
68320;BME280;55168;51.120;17.024;2023-03-18T01:17:00;100020;;;3.1;99.3
68320;BME280;55168;51.120;17.024;2023-03-18T01:18:00;100010;;;3.1;99.7
68320;BME280;55168;51.120;17.024;2023-03-18T01:19:00;100010;;;3.0;100.0
68320;BME280;55168;51.120;17.024;2023-03-18T01:20:00;100010;;;3.0;100.0
68320;BME280;55168;51.120;17.024;2023-03-18T01:21:00;100010;;;3.0;100.0
68320;BME280;55168;51.120;17.024;2023-03-18T01:22:01;100010;;;2.9;100.0
68320;BME280;55168;51.120;17.024;2023-03-18T01:23:00;100010;;;3.0;100.0
68320;BME280;55168;51.120;17.024;2023-03-18T01:24:00;100010;;;3.0;100.0
68320;BME280;55168;51.120;17.024;2023-03-18T01:25:00;100010;;;3.0;100.0
68320;BME280;55168;51.120;17.024;2023-03-18T01:26:00;100010;;;3.0;100.0
68320;BME280;55168;51.120;17.024;2023-03-18T01:27:00;100010;;;3.0;100.0
68320;BME280;55168;51.120;17.024;2023-03-18T01:28:00;100010;;;2.9;100.0
68320;BME280;55168;51.120;17.024;2023-03-18T01:29:00;100000;;;2.9;100.0
68320;BME280;55168;51.120;17.024;2023-03-18T01:30:00;100000;;;2.8;100.0
68320;BME280;55168;51.120;17.024;2023-03-18T01:31:00;100000;;;2.8;100.0
68320;BME280;55168;51.120;17.024;2023-03-18T01:32:00;100000;;;2.8;100.0
68320;BME280;55168;51.120;17.024;2023-03-18T01:33:00;100000;;;2.8;100.0
68320;BME280;55168;51.120;17.024;2023-03-18T01:34:00;100000;;;2.9;100.0
68320;BME280;55168;51.120;17.024;2023-03-18T01:35:00;100000;;;2.9;100.0
68320;BME280;55168;51.120;17.024;2023-03-18T01:36:00;100000;;;2.9;100.0
68320;BME280;55168;51.120;17.024;2023-03-18T01:37:00;100000;;;2.9;100.0
68320;BME280;55168;51.120;17.024;2023-03-18T01:38:00;100000;;;2.9;100.0
68320;BME280;55168;51.120;17.024;2023-03-18T01:39:00;100000;;;2.9;100.0
68320;BME280;55168;51.120;17.024;2023-03-18T01:40:00;100000;;;2.9;100.0
68320;BME280;55168;51.120;17.024;2023-03-18T01:41:00;99990;;;2.9;100.0
68320;BME280;55168;51.120;17.024;2023-03-18T01:42:00;99990;;;2.9;100.0
68320;BME280;55168;51.120;17.024;2023-03-18T01:44:00;100000;;;2.9;100.0
68320;BME280;55168;51.120;17.024;2023-03-18T01:45:17;100000;;;3.0;100.0
68320;BME280;55168;51.120;17.024;2023-03-18T01:46:00;100000;;;3.0;100.0
68320;BME280;55168;51.120;17.024;2023-03-18T01:47:00;99990;;;3.0;100.0
68320;BME280;55168;51.120;17.024;2023-03-18T01:48:00;99990;;;2.9;100.0
68320;BME280;55168;51.120;17.024;2023-03-18T01:49:01;99990;;;3.0;99.2
68320;BME280;55168;51.120;17.024;2023-03-18T01:50:00;99990;;;3.1;97.8
68320;BME280;55168;51.120;17.024;2023-03-18T01:51:02;99990;;;3.1;98.0
68320;BME280;55168;51.120;17.024;2023-03-18T01:52:01;99990;;;3.1;98.8
68320;BME280;55168;51.120;17.024;2023-03-18T01:53:02;99990;;;3.1;98.6
68320;BME280;55168;51.120;17.024;2023-03-18T01:54:01;99980;;;3.0;99.3
68320;BME280;55168;51.120;17.024;2023-03-18T01:55:02;99990;;;3.0;100.0
68320;BME280;55168;51.120;17.024;2023-03-18T01:56:00;99990;;;3.1;97.6
68320;BME280;55168;51.120;17.024;2023-03-18T01:57:00;99980;;;3.1;98.1
68320;BME280;55168;51.120;17.024;2023-03-18T01:58:00;99980;;;3.1;98.1
68320;BME280;55168;51.120;17.024;2023-03-18T01:59:00;99980;;;3.0;99.2
68320;BME280;55168;51.120;17.024;2023-03-18T02:00:00;99980;;;2.9;100.0
68320;BME280;55168;51.120;17.024;2023-03-18T02:01:01;99980;;;2.9;100.0
68320;BME280;55168;51.120;17.024;2023-03-18T02:02:02;99980;;;2.9;100.0
68320;BME280;55168;51.120;17.024;2023-03-18T02:03:00;99980;;;3.0;99.0
68320;BME280;55168;51.120;17.024;2023-03-18T02:04:00;99980;;;3.0;98.5
68320;BME280;55168;51.120;17.024;2023-03-18T02:05:01;99980;;;3.0;97.8
68320;BME280;55168;51.120;17.024;2023-03-18T02:06:00;99980;;;3.0;98.2
68320;BME280;55168;51.120;17.024;2023-03-18T02:07:00;99980;;;3.0;98.8
68320;BME280;55168;51.120;17.024;2023-03-18T02:08:00;99980;;;2.9;99.4
68320;BME280;55168;51.120;17.024;2023-03-18T02:09:00;99980;;;2.9;100.0
68320;BME280;55168;51.120;17.024;2023-03-18T02:10:01;99980;;;2.9;99.7
68320;BME280;55168;51.120;17.024;2023-03-18T02:11:00;99980;;;2.9;100.0
68320;BME280;55168;51.120;17.024;2023-03-18T02:12:00;99980;;;3.0;99.9
68320;BME280;55168;51.120;17.024;2023-03-18T02:13:02;99980;;;3.0;99.5
68320;BME280;55168;51.120;17.024;2023-03-18T02:14:00;99980;;;3.1;97.7
68320;BME280;55168;51.120;17.024;2023-03-18T02:15:01;99980;;;3.0;99.2
68320;BME280;55168;51.120;17.024;2023-03-18T02:16:01;99980;;;3.1;98.3
68320;BME280;55168;51.120;17.024;2023-03-18T02:17:02;99980;;;3.1;97.5
68320;BME280;55168;51.120;17.024;2023-03-18T02:18:02;99980;;;3.2;97.4
68320;BME280;55168;51.120;17.024;2023-03-18T02:19:04;99980;;;3.2;94.9
68320;BME280;55168;51.120;17.024;2023-03-18T02:23:05;99980;;;3.4;92.2
68320;BME280;55168;51.120;17.024;2023-03-18T02:27:02;99990;;;3.3;92.5
68320;BME280;55168;51.120;17.024;2023-03-18T02:28:01;99980;;;3.3;92.1
68320;BME280;55168;51.120;17.024;2023-03-18T02:29:00;99990;;;3.3;93.5
68320;BME280;55168;51.120;17.024;2023-03-18T02:30:03;99980;;;3.4;91.6
68320;BME280;55168;51.120;17.024;2023-03-18T02:31:01;99980;;;3.4;91.1
68320;BME280;55168;51.120;17.024;2023-03-18T02:32:00;99980;;;3.4;91.1
68320;BME280;55168;51.120;17.024;2023-03-18T02:33:00;99980;;;3.4;90.6
68320;BME280;55168;51.120;17.024;2023-03-18T02:34:00;99980;;;3.4;89.9
68320;BME280;55168;51.120;17.024;2023-03-18T02:35:00;99980;;;3.5;89.1
68320;BME280;55168;51.120;17.024;2023-03-18T02:36:02;99990;;;3.5;88.4
68320;BME280;55168;51.120;17.024;2023-03-18T02:37:00;99980;;;3.5;88.5
68320;BME280;55168;51.120;17.024;2023-03-18T02:38:00;99990;;;3.5;88.7
68320;BME280;55168;51.120;17.024;2023-03-18T02:39:00;99980;;;3.5;88.8
68320;BME280;55168;51.120;17.024;2023-03-18T02:40:18;99980;;;3.5;88.1
68320;BME280;55168;51.120;17.024;2023-03-18T02:41:00;99990;;;3.5;88.4
68320;BME280;55168;51.120;17.024;2023-03-18T02:42:00;99980;;;3.5;88.2
68320;BME280;55168;51.120;17.024;2023-03-18T02:43:17;99980;;;3.6;87.8
68320;BME280;55168;51.120;17.024;2023-03-18T02:44:00;99980;;;3.6;86.9
68320;BME280;55168;51.120;17.024;2023-03-18T02:45:00;99980;;;3.6;86.8
68320;BME280;55168;51.120;17.024;2023-03-18T02:47:01;99980;;;3.6;87.8
68320;BME280;55168;51.120;17.024;2023-03-18T02:48:00;99980;;;3.6;86.3
68320;BME280;55168;51.120;17.024;2023-03-18T02:49:00;99980;;;3.6;86.4
68320;BME280;55168;51.120;17.024;2023-03-18T02:50:00;99980;;;3.6;85.9
68320;BME280;55168;51.120;17.024;2023-03-18T02:51:00;99980;;;3.6;85.3
68320;BME280;55168;51.120;17.024;2023-03-18T02:52:00;99980;;;3.6;85.3
68320;BME280;55168;51.120;17.024;2023-03-18T02:53:00;99980;;;3.6;86.0
68320;BME280;55168;51.120;17.024;2023-03-18T02:54:02;99980;;;3.6;85.6
68320;BME280;55168;51.120;17.024;2023-03-18T02:55:00;99980;;;3.6;86.1
68320;BME280;55168;51.120;17.024;2023-03-18T02:56:00;99980;;;3.6;86.0
68320;BME280;55168;51.120;17.024;2023-03-18T02:57:00;99980;;;3.6;84.7
68320;BME280;55168;51.120;17.024;2023-03-18T02:58:00;99980;;;3.6;85.2
68320;BME280;55168;51.120;17.024;2023-03-18T02:59:00;99980;;;3.6;84.8
68320;BME280;55168;51.120;17.024;2023-03-18T03:00:00;99980;;;3.6;84.2
68320;BME280;55168;51.120;17.024;2023-03-18T03:01:00;99980;;;3.6;84.7
68320;BME280;55168;51.120;17.024;2023-03-18T03:02:00;99980;;;3.6;84.4
68320;BME280;55168;51.120;17.024;2023-03-18T03:03:00;99980;;;3.6;84.8
68320;BME280;55168;51.120;17.024;2023-03-18T03:04:00;99980;;;3.6;84.6
68320;BME280;55168;51.120;17.024;2023-03-18T03:05:02;99980;;;3.6;84.0
68320;BME280;55168;51.120;17.024;2023-03-18T03:06:00;99980;;;3.6;85.0
68320;BME280;55168;51.120;17.024;2023-03-18T03:07:00;99980;;;3.6;85.4
68320;BME280;55168;51.120;17.024;2023-03-18T03:08:00;99980;;;3.6;85.0
68320;BME280;55168;51.120;17.024;2023-03-18T03:09:00;99980;;;3.6;84.7
68320;BME280;55168;51.120;17.024;2023-03-18T03:10:00;99980;;;3.6;84.9
68320;BME280;55168;51.120;17.024;2023-03-18T03:11:00;99980;;;3.6;84.4
68320;BME280;55168;51.120;17.024;2023-03-18T03:12:00;99980;;;3.6;84.7
68320;BME280;55168;51.120;17.024;2023-03-18T03:13:00;99980;;;3.6;85.0
68320;BME280;55168;51.120;17.024;2023-03-18T03:14:00;99980;;;3.6;85.1
68320;BME280;55168;51.120;17.024;2023-03-18T03:15:00;99990;;;3.6;84.8
68320;BME280;55168;51.120;17.024;2023-03-18T03:16:00;99980;;;3.5;85.0
68320;BME280;55168;51.120;17.024;2023-03-18T03:17:00;99980;;;3.6;84.9
68320;BME280;55168;51.120;17.024;2023-03-18T03:18:00;99980;;;3.6;85.1
68320;BME280;55168;51.120;17.024;2023-03-18T03:19:00;99990;;;3.5;85.6
68320;BME280;55168;51.120;17.024;2023-03-18T03:20:00;99990;;;3.6;84.9
68320;BME280;55168;51.120;17.024;2023-03-18T03:21:00;99980;;;3.5;85.0
68320;BME280;55168;51.120;17.024;2023-03-18T03:22:00;99990;;;3.5;87.4
68320;BME280;55168;51.120;17.024;2023-03-18T03:23:01;99980;;;3.6;86.0
68320;BME280;55168;51.120;17.024;2023-03-18T03:24:01;99980;;;3.6;86.9
68320;BME280;55168;51.120;17.024;2023-03-18T03:25:00;99980;;;3.6;87.2
68320;BME280;55168;51.120;17.024;2023-03-18T03:26:00;99980;;;3.6;86.6
68320;BME280;55168;51.120;17.024;2023-03-18T03:27:00;99980;;;3.6;85.1
68320;BME280;55168;51.120;17.024;2023-03-18T03:28:00;99980;;;3.6;85.2
68320;BME280;55168;51.120;17.024;2023-03-18T03:29:00;99980;;;3.6;86.2
68320;BME280;55168;51.120;17.024;2023-03-18T03:30:00;99980;;;3.7;84.4
68320;BME280;55168;51.120;17.024;2023-03-18T03:31:00;99980;;;3.7;83.4
68320;BME280;55168;51.120;17.024;2023-03-18T03:32:00;99980;;;3.7;83.0
68320;BME280;55168;51.120;17.024;2023-03-18T03:33:00;99990;;;3.7;84.9
68320;BME280;55168;51.120;17.024;2023-03-18T03:34:00;99990;;;3.7;85.3
68320;BME280;55168;51.120;17.024;2023-03-18T03:35:00;99990;;;3.7;85.5
68320;BME280;55168;51.120;17.024;2023-03-18T03:36:00;99990;;;3.7;85.5
68320;BME280;55168;51.120;17.024;2023-03-18T03:37:00;99990;;;3.7;85.2
68320;BME280;55168;51.120;17.024;2023-03-18T03:38:00;99990;;;3.7;84.6
68320;BME280;55168;51.120;17.024;2023-03-18T03:39:00;99990;;;3.7;86.8
68320;BME280;55168;51.120;17.024;2023-03-18T03:40:00;99990;;;3.7;85.4
68320;BME280;55168;51.120;17.024;2023-03-18T03:41:00;99990;;;3.7;86.3
68320;BME280;55168;51.120;17.024;2023-03-18T03:42:00;99990;;;3.7;85.2
68320;BME280;55168;51.120;17.024;2023-03-18T03:43:00;99990;;;3.7;85.8
68320;BME280;55168;51.120;17.024;2023-03-18T03:44:00;99990;;;3.7;85.4
68320;BME280;55168;51.120;17.024;2023-03-18T03:45:00;100000;;;3.8;83.8
68320;BME280;55168;51.120;17.024;2023-03-18T03:46:00;99990;;;3.8;83.9
68320;BME280;55168;51.120;17.024;2023-03-18T03:47:00;99990;;;3.8;84.1
68320;BME280;55168;51.120;17.024;2023-03-18T03:48:00;99990;;;3.8;84.1
68320;BME280;55168;51.120;17.024;2023-03-18T03:49:00;99990;;;3.8;83.9
68320;BME280;55168;51.120;17.024;2023-03-18T03:50:00;99990;;;3.8;84.2
68320;BME280;55168;51.120;17.024;2023-03-18T03:51:00;100000;;;3.8;83.1
68320;BME280;55168;51.120;17.024;2023-03-18T03:52:00;99990;;;3.9;84.1
68320;BME280;55168;51.120;17.024;2023-03-18T03:53:00;100000;;;3.8;84.4
68320;BME280;55168;51.120;17.024;2023-03-18T03:54:00;100000;;;3.8;83.7
68320;BME280;55168;51.120;17.024;2023-03-18T03:55:00;99990;;;3.8;82.6
68320;BME280;55168;51.120;17.024;2023-03-18T03:56:00;100000;;;3.8;81.8
68320;BME280;55168;51.120;17.024;2023-03-18T03:57:00;100010;;;3.8;83.5
68320;BME280;55168;51.120;17.024;2023-03-18T03:58:00;100000;;;3.8;82.8
68320;BME280;55168;51.120;17.024;2023-03-18T03:59:00;100000;;;3.8;83.3
68320;BME280;55168;51.120;17.024;2023-03-18T04:00:00;100000;;;3.9;83.1
68320;BME280;55168;51.120;17.024;2023-03-18T04:01:00;100000;;;3.9;82.9
68320;BME280;55168;51.120;17.024;2023-03-18T04:02:00;100000;;;3.9;83.6
68320;BME280;55168;51.120;17.024;2023-03-18T04:03:00;100000;;;3.9;83.1
68320;BME280;55168;51.120;17.024;2023-03-18T04:04:00;100000;;;3.8;83.0
68320;BME280;55168;51.120;17.024;2023-03-18T04:05:00;100000;;;3.8;83.2
68320;BME280;55168;51.120;17.024;2023-03-18T04:06:00;100000;;;3.9;82.4
68320;BME280;55168;51.120;17.024;2023-03-18T04:07:00;99990;;;3.9;84.0
68320;BME280;55168;51.120;17.024;2023-03-18T04:08:00;99990;;;3.8;85.6
68320;BME280;55168;51.120;17.024;2023-03-18T04:09:00;99990;;;3.8;86.4
68320;BME280;55168;51.120;17.024;2023-03-18T04:10:00;99990;;;3.8;83.9
68320;BME280;55168;51.120;17.024;2023-03-18T04:11:00;99990;;;3.8;83.7
68320;BME280;55168;51.120;17.024;2023-03-18T04:12:00;99990;;;3.8;85.1
68320;BME280;55168;51.120;17.024;2023-03-18T04:13:00;99990;;;3.8;85.0
68320;BME280;55168;51.120;17.024;2023-03-18T04:14:00;99990;;;3.8;85.2
68320;BME280;55168;51.120;17.024;2023-03-18T04:15:00;100000;;;3.8;84.6
68320;BME280;55168;51.120;17.024;2023-03-18T04:16:00;100000;;;3.8;85.7
68320;BME280;55168;51.120;17.024;2023-03-18T04:17:00;100000;;;3.8;85.2
68320;BME280;55168;51.120;17.024;2023-03-18T04:18:00;100000;;;3.8;85.8
68320;BME280;55168;51.120;17.024;2023-03-18T04:19:00;100010;;;3.7;87.1
68320;BME280;55168;51.120;17.024;2023-03-18T04:20:00;100010;;;3.8;83.7
68320;BME280;55168;51.120;17.024;2023-03-18T04:21:00;100010;;;3.9;82.4
68320;BME280;55168;51.120;17.024;2023-03-18T04:22:00;100010;;;3.9;83.0
68320;BME280;55168;51.120;17.024;2023-03-18T04:23:00;100010;;;3.9;83.9
68320;BME280;55168;51.120;17.024;2023-03-18T04:24:00;100000;;;3.8;84.7
68320;BME280;55168;51.120;17.024;2023-03-18T04:25:00;100010;;;3.8;84.5
68320;BME280;55168;51.120;17.024;2023-03-18T04:26:00;100010;;;3.8;83.9
68320;BME280;55168;51.120;17.024;2023-03-18T04:27:00;100010;;;3.8;84.8
68320;BME280;55168;51.120;17.024;2023-03-18T04:28:00;100010;;;3.8;85.6
68320;BME280;55168;51.120;17.024;2023-03-18T04:29:00;100010;;;3.8;84.1
68320;BME280;55168;51.120;17.024;2023-03-18T04:30:00;100010;;;3.8;83.9
68320;BME280;55168;51.120;17.024;2023-03-18T04:31:00;100020;;;3.9;85.1
68320;BME280;55168;51.120;17.024;2023-03-18T04:32:00;100010;;;3.8;85.7
68320;BME280;55168;51.120;17.024;2023-03-18T04:33:00;100010;;;3.9;83.5
68320;BME280;55168;51.120;17.024;2023-03-18T04:34:00;100020;;;3.9;84.4
68320;BME280;55168;51.120;17.024;2023-03-18T04:35:00;100020;;;3.9;85.2
68320;BME280;55168;51.120;17.024;2023-03-18T04:36:00;100020;;;3.9;84.0
68320;BME280;55168;51.120;17.024;2023-03-18T04:37:00;100020;;;3.9;82.8
68320;BME280;55168;51.120;17.024;2023-03-18T04:38:00;100020;;;3.9;85.0
68320;BME280;55168;51.120;17.024;2023-03-18T04:39:00;100020;;;3.9;82.5
68320;BME280;55168;51.120;17.024;2023-03-18T04:40:00;100020;;;3.9;82.1
68320;BME280;55168;51.120;17.024;2023-03-18T04:41:00;100020;;;3.9;82.5
68320;BME280;55168;51.120;17.024;2023-03-18T04:42:00;100010;;;3.9;81.8
68320;BME280;55168;51.120;17.024;2023-03-18T04:43:00;100020;;;3.9;81.7
68320;BME280;55168;51.120;17.024;2023-03-18T04:44:00;100020;;;3.9;81.3
68320;BME280;55168;51.120;17.024;2023-03-18T04:45:00;100020;;;3.9;81.7
68320;BME280;55168;51.120;17.024;2023-03-18T04:46:00;100020;;;3.9;81.8
68320;BME280;55168;51.120;17.024;2023-03-18T04:47:00;100020;;;3.9;81.3
68320;BME280;55168;51.120;17.024;2023-03-18T04:48:00;100020;;;3.8;83.5
68320;BME280;55168;51.120;17.024;2023-03-18T04:49:00;100010;;;3.8;85.1
68320;BME280;55168;51.120;17.024;2023-03-18T04:50:00;100020;;;3.8;85.3
68320;BME280;55168;51.120;17.024;2023-03-18T04:51:00;100020;;;3.8;84.1
68320;BME280;55168;51.120;17.024;2023-03-18T04:52:00;100020;;;3.8;84.6
68320;BME280;55168;51.120;17.024;2023-03-18T04:53:00;100020;;;3.7;85.1
68320;BME280;55168;51.120;17.024;2023-03-18T04:54:00;100010;;;3.8;82.8
68320;BME280;55168;51.120;17.024;2023-03-18T04:55:00;100010;;;3.8;82.4
68320;BME280;55168;51.120;17.024;2023-03-18T04:56:00;100010;;;3.8;83.3
68320;BME280;55168;51.120;17.024;2023-03-18T04:57:00;100010;;;3.8;83.3
68320;BME280;55168;51.120;17.024;2023-03-18T04:58:00;100010;;;3.8;83.4
68320;BME280;55168;51.120;17.024;2023-03-18T04:59:00;100000;;;3.8;82.4
68320;BME280;55168;51.120;17.024;2023-03-18T05:00:00;100000;;;3.8;82.0
68320;BME280;55168;51.120;17.024;2023-03-18T05:01:00;100000;;;3.8;82.0
68320;BME280;55168;51.120;17.024;2023-03-18T05:02:00;100010;;;3.8;81.6
68320;BME280;55168;51.120;17.024;2023-03-18T05:03:00;100010;;;3.9;81.4
68320;BME280;55168;51.120;17.024;2023-03-18T05:04:00;100010;;;3.9;81.6
68320;BME280;55168;51.120;17.024;2023-03-18T05:05:00;100010;;;3.9;81.0
68320;BME280;55168;51.120;17.024;2023-03-18T05:06:00;100010;;;3.9;82.4
68320;BME280;55168;51.120;17.024;2023-03-18T05:07:00;100010;;;3.8;82.9
68320;BME280;55168;51.120;17.024;2023-03-18T05:08:00;100010;;;3.8;82.7
68320;BME280;55168;51.120;17.024;2023-03-18T05:09:00;100010;;;3.8;83.6
68320;BME280;55168;51.120;17.024;2023-03-18T05:10:00;100020;;;3.8;83.3
68320;BME280;55168;51.120;17.024;2023-03-18T05:11:00;100010;;;3.8;83.6
68320;BME280;55168;51.120;17.024;2023-03-18T05:12:00;100010;;;3.8;84.3
68320;BME280;55168;51.120;17.024;2023-03-18T05:13:00;100010;;;3.8;83.3
68320;BME280;55168;51.120;17.024;2023-03-18T05:14:00;100020;;;3.8;83.6
68320;BME280;55168;51.120;17.024;2023-03-18T05:15:00;100020;;;3.9;82.6
68320;BME280;55168;51.120;17.024;2023-03-18T05:16:00;100020;;;3.9;82.9
68320;BME280;55168;51.120;17.024;2023-03-18T05:17:00;100020;;;3.9;83.5
68320;BME280;55168;51.120;17.024;2023-03-18T05:18:00;100020;;;4.0;83.1
68320;BME280;55168;51.120;17.024;2023-03-18T05:19:00;100020;;;4.1;83.9
68320;BME280;55168;51.120;17.024;2023-03-18T05:20:00;100020;;;4.1;83.9
68320;BME280;55168;51.120;17.024;2023-03-18T05:21:00;100020;;;4.2;81.9
68320;BME280;55168;51.120;17.024;2023-03-18T05:22:00;100020;;;4.3;81.3
68320;BME280;55168;51.120;17.024;2023-03-18T05:23:00;100020;;;4.3;82.1
68320;BME280;55168;51.120;17.024;2023-03-18T05:24:00;100020;;;4.2;82.2
68320;BME280;55168;51.120;17.024;2023-03-18T05:25:00;100020;;;4.2;81.8
68320;BME280;55168;51.120;17.024;2023-03-18T05:26:00;100030;;;4.2;80.6
68320;BME280;55168;51.120;17.024;2023-03-18T05:27:00;100030;;;4.2;81.9
68320;BME280;55168;51.120;17.024;2023-03-18T05:28:00;100020;;;4.2;82.0
68320;BME280;55168;51.120;17.024;2023-03-18T05:29:00;100020;;;4.2;81.4
68320;BME280;55168;51.120;17.024;2023-03-18T05:30:00;100020;;;4.2;82.4
68320;BME280;55168;51.120;17.024;2023-03-18T05:31:00;100020;;;4.2;81.9
68320;BME280;55168;51.120;17.024;2023-03-18T05:32:00;100020;;;4.2;82.5
68320;BME280;55168;51.120;17.024;2023-03-18T05:33:00;100020;;;4.2;82.2
68320;BME280;55168;51.120;17.024;2023-03-18T05:34:00;100020;;;4.2;82.3
68320;BME280;55168;51.120;17.024;2023-03-18T05:35:00;100030;;;4.2;82.1
68320;BME280;55168;51.120;17.024;2023-03-18T05:36:00;100030;;;4.2;82.2
68320;BME280;55168;51.120;17.024;2023-03-18T05:37:00;100020;;;4.2;80.5
68320;BME280;55168;51.120;17.024;2023-03-18T05:38:00;100030;;;4.3;80.3
68320;BME280;55168;51.120;17.024;2023-03-18T05:39:00;100030;;;4.3;78.8
68320;BME280;55168;51.120;17.024;2023-03-18T05:40:00;100020;;;4.3;78.9
68320;BME280;55168;51.120;17.024;2023-03-18T05:41:00;100030;;;4.3;79.7
68320;BME280;55168;51.120;17.024;2023-03-18T05:42:00;100020;;;4.3;79.5
68320;BME280;55168;51.120;17.024;2023-03-18T05:43:00;100020;;;4.4;79.4
68320;BME280;55168;51.120;17.024;2023-03-18T05:44:00;100020;;;4.4;78.2